Terminal Aerodrome Forecast
Issued by NWS Brownsville, TX

Home | Current Version | Previous Version | Text Only | Print | Product List | Glossary On
Versions: 1 2 3 4 5 6 7 8 9 10 11 12 13 14 15 16 17 18 19 20
000
FTUS44 KBRO 212000 AAA
TAFHRL
TAF AMD
KHRL 212046Z 2121/2218 04008KT P6SM VCSH SCT020 BKN040
     FM212200 04010KT P6SM SCT035 BKN100
     FM220200 08008KT P6SM FEW025 BKN250
     FM221000 02004KT P6SM FEW025 SCT250=

USA.gov is the U.S. government's official web portal to all federal, state and local government web resources and services.